sensor_id;sensor_type;location;lat;lon;timestamp;pressure;altitude;pressure_sealevel;temperature;humidity
40730;BME280;26418;50.070;8.436;2023-04-09T00:02:10;100852.97;;;8.00;69.95
40730;BME280;26418;50.070;8.436;2023-04-09T00:04:35;100865.69;;;8.05;69.85
40730;BME280;26418;50.070;8.436;2023-04-09T00:07:00;100853.50;;;7.97;69.75
40730;BME280;26418;50.070;8.436;2023-04-09T00:09:26;100859.72;;;7.97;69.99
40730;BME280;26418;50.070;8.436;2023-04-09T00:11:51;100848.31;;;7.90;70.16
40730;BME280;26418;50.070;8.436;2023-04-09T00:14:17;100855.38;;;7.96;70.11
40730;BME280;26418;50.070;8.436;2023-04-09T00:16:42;100854.31;;;7.97;70.12
40730;BME280;26418;50.070;8.436;2023-04-09T00:19:07;100855.38;;;7.96;70.05
40730;BME280;26418;50.070;8.436;2023-04-09T00:21:33;100848.94;;;7.97;70.07
40730;BME280;26418;50.070;8.436;2023-04-09T00:23:58;100852.44;;;7.98;69.36
40730;BME280;26418;50.070;8.436;2023-04-09T00:26:23;100853.75;;;7.95;69.52
40730;BME280;26418;50.070;8.436;2023-04-09T00:28:49;100852.13;;;7.94;70.07
40730;BME280;26418;50.070;8.436;2023-04-09T00:31:14;100832.41;;;7.83;70.30
40730;BME280;26418;50.070;8.436;2023-04-09T00:33:40;100847.53;;;7.90;70.20
40730;BME280;26418;50.070;8.436;2023-04-09T00:36:06;100840.00;;;7.92;70.45
40730;BME280;26418;50.070;8.436;2023-04-09T00:38:31;100841.63;;;7.93;70.53
40730;BME280;26418;50.070;8.436;2023-04-09T00:40:57;100844.56;;;7.91;70.71
40730;BME280;26418;50.070;8.436;2023-04-09T00:43:22;100838.66;;;7.94;70.48
40730;BME280;26418;50.070;8.436;2023-04-09T00:45:47;100829.16;;;7.81;70.46
40730;BME280;26418;50.070;8.436;2023-04-09T00:48:14;100831.09;;;7.91;70.20
40730;BME280;26418;50.070;8.436;2023-04-09T00:50:41;100827.56;;;7.85;69.77
40730;BME280;26418;50.070;8.436;2023-04-09T00:53:07;100838.38;;;7.91;70.08
40730;BME280;26418;50.070;8.436;2023-04-09T00:55:35;100837.78;;;7.83;70.31
40730;BME280;26418;50.070;8.436;2023-04-09T00:58:01;100830.72;;;7.77;70.54
40730;BME280;26418;50.070;8.436;2023-04-09T01:00:27;100842.34;;;7.83;70.65
40730;BME280;26418;50.070;8.436;2023-04-09T01:02:55;100840.19;;;7.80;71.14
40730;BME280;26418;50.070;8.436;2023-04-09T01:05:21;100842.31;;;7.78;71.35
40730;BME280;26418;50.070;8.436;2023-04-09T01:13:24;100843.06;;;7.68;72.13
40730;BME280;26418;50.070;8.436;2023-04-09T01:15:54;100825.47;;;7.55;72.34
40730;BME280;26418;50.070;8.436;2023-04-09T01:18:40;100838.66;;;7.57;72.55
40730;BME280;26418;50.070;8.436;2023-04-09T01:21:15;100837.53;;;7.52;72.80
40730;BME280;26418;50.070;8.436;2023-04-09T01:27:01;100832.09;;;7.42;73.01
40730;BME280;26418;50.070;8.436;2023-04-09T01:29:31;100830.47;;;7.41;73.15
40730;BME280;26418;50.070;8.436;2023-04-09T01:31:58;100836.06;;;7.34;73.44
40730;BME280;26418;50.070;8.436;2023-04-09T01:34:25;100838.44;;;7.31;73.63
40730;BME280;26418;50.070;8.436;2023-04-09T01:36:54;100830.28;;;7.20;74.32
40730;BME280;26418;50.070;8.436;2023-04-09T01:39:21;100835.66;;;7.20;74.16
40730;BME280;26418;50.070;8.436;2023-04-09T01:41:47;100824.00;;;7.10;74.31
40730;BME280;26418;50.070;8.436;2023-04-09T01:44:13;100841.47;;;7.07;74.73
40730;BME280;26418;50.070;8.436;2023-04-09T01:46:39;100846.78;;;7.02;74.82
40730;BME280;26418;50.070;8.436;2023-04-09T01:49:06;100838.81;;;6.85;75.04
40730;BME280;26418;50.070;8.436;2023-04-09T01:51:32;100841.50;;;6.85;75.61
40730;BME280;26418;50.070;8.436;2023-04-09T01:53:58;100844.63;;;6.76;75.92
40730;BME280;26418;50.070;8.436;2023-04-09T01:56:24;100843.19;;;6.69;75.98
40730;BME280;26418;50.070;8.436;2023-04-09T01:58:50;100845.78;;;6.58;76.35
40730;BME280;26418;50.070;8.436;2023-04-09T02:02:07;100846.75;;;6.52;76.55
40730;BME280;26418;50.070;8.436;2023-04-09T02:04:22;100848.25;;;6.43;77.05
40730;BME280;26418;50.070;8.436;2023-04-09T02:07:05;100846.56;;;6.37;77.22
40730;BME280;26418;50.070;8.436;2023-04-09T02:09:38;100849.19;;;6.32;77.58
40730;BME280;26418;50.070;8.436;2023-04-09T02:12:05;100845.88;;;6.24;77.70
40730;BME280;26418;50.070;8.436;2023-04-09T02:14:34;100851.50;;;6.23;78.07
40730;BME280;26418;50.070;8.436;2023-04-09T02:17:00;100842.31;;;6.19;78.23
40730;BME280;26418;50.070;8.436;2023-04-09T02:19:40;100851.13;;;6.14;78.33
40730;BME280;26418;50.070;8.436;2023-04-09T02:22:06;100853.22;;;6.12;78.24
40730;BME280;26418;50.070;8.436;2023-04-09T02:24:32;100850.66;;;6.00;78.28
40730;BME280;26418;50.070;8.436;2023-04-09T02:26:57;100849.59;;;6.01;78.53
40730;BME280;26418;50.070;8.436;2023-04-09T02:29:22;100841.28;;;5.86;78.54
40730;BME280;26418;50.070;8.436;2023-04-09T02:31:48;100840.72;;;5.83;78.82
40730;BME280;26418;50.070;8.436;2023-04-09T02:34:14;100858.44;;;5.85;79.03
40730;BME280;26418;50.070;8.436;2023-04-09T02:36:40;100850.06;;;5.81;79.31
40730;BME280;26418;50.070;8.436;2023-04-09T02:39:05;100849.91;;;5.71;79.50
40730;BME280;26418;50.070;8.436;2023-04-09T02:41:31;100848.84;;;5.72;79.52
40730;BME280;26418;50.070;8.436;2023-04-09T02:43:56;100853.06;;;5.67;79.63
40730;BME280;26418;50.070;8.436;2023-04-09T02:46:21;100856.47;;;5.63;79.85
40730;BME280;26418;50.070;8.436;2023-04-09T02:48:47;100851.63;;;5.60;80.19
40730;BME280;26418;50.070;8.436;2023-04-09T02:51:12;100848.63;;;5.56;80.36
40730;BME280;26418;50.070;8.436;2023-04-09T02:53:37;100852.59;;;5.54;80.51
40730;BME280;26418;50.070;8.436;2023-04-09T02:56:05;100847.97;;;5.49;80.67
40730;BME280;26418;50.070;8.436;2023-04-09T02:58:30;100848.69;;;5.44;80.88
40730;BME280;26418;50.070;8.436;2023-04-09T03:00:56;100852.09;;;5.40;81.02
40730;BME280;26418;50.070;8.436;2023-04-09T03:03:21;100850.94;;;5.35;81.05
40730;BME280;26418;50.070;8.436;2023-04-09T03:05:46;100845.34;;;5.37;81.23
40730;BME280;26418;50.070;8.436;2023-04-09T03:08:12;100844.38;;;5.43;81.01
40730;BME280;26418;50.070;8.436;2023-04-09T03:10:37;100838.75;;;5.45;80.63
40730;BME280;26418;50.070;8.436;2023-04-09T03:13:02;100839.25;;;5.42;80.81
40730;BME280;26418;50.070;8.436;2023-04-09T03:15:27;100836.00;;;5.40;80.63
40730;BME280;26418;50.070;8.436;2023-04-09T03:17:53;100836.22;;;5.38;80.70
40730;BME280;26418;50.070;8.436;2023-04-09T03:20:18;100831.94;;;5.37;80.65
40730;BME280;26418;50.070;8.436;2023-04-09T03:22:44;100833.00;;;5.36;80.48
40730;BME280;26418;50.070;8.436;2023-04-09T03:25:09;100826.00;;;5.35;80.57
40730;BME280;26418;50.070;8.436;2023-04-09T03:27:35;100829.47;;;5.35;80.56
40730;BME280;26418;50.070;8.436;2023-04-09T03:30:00;100824.03;;;5.30;80.60
40730;BME280;26418;50.070;8.436;2023-04-09T03:32:26;100822.28;;;5.36;80.80
40730;BME280;26418;50.070;8.436;2023-04-09T03:34:51;100823.31;;;5.35;80.42
40730;BME280;26418;50.070;8.436;2023-04-09T03:37:17;100831.84;;;5.32;80.42
40730;BME280;26418;50.070;8.436;2023-04-09T03:39:42;100815.75;;;5.32;80.84
40730;BME280;26418;50.070;8.436;2023-04-09T03:42:07;100815.16;;;5.30;80.52
40730;BME280;26418;50.070;8.436;2023-04-09T03:44:33;100818.69;;;5.30;80.65
40730;BME280;26418;50.070;8.436;2023-04-09T03:46:58;100804.38;;;5.25;80.73
40730;BME280;26418;50.070;8.436;2023-04-09T03:49:23;100821.84;;;5.27;80.79
40730;BME280;26418;50.070;8.436;2023-04-09T03:51:48;100819.66;;;5.24;81.17
40730;BME280;26418;50.070;8.436;2023-04-09T03:54:14;100814.78;;;5.21;81.20
40730;BME280;26418;50.070;8.436;2023-04-09T03:56:40;100806.66;;;5.16;81.36
40730;BME280;26418;50.070;8.436;2023-04-09T03:59:05;100812.81;;;5.16;81.45
40730;BME280;26418;50.070;8.436;2023-04-09T04:01:30;100822.47;;;5.17;81.38
40730;BME280;26418;50.070;8.436;2023-04-09T04:03:56;100815.16;;;5.13;81.42
40730;BME280;26418;50.070;8.436;2023-04-09T04:06:21;100819.94;;;5.11;81.55
40730;BME280;26418;50.070;8.436;2023-04-09T04:08:46;100820.19;;;5.09;81.83
40730;BME280;26418;50.070;8.436;2023-04-09T04:11:12;100819.94;;;5.11;81.91
40730;BME280;26418;50.070;8.436;2023-04-09T04:13:37;100815.63;;;5.10;81.99
40730;BME280;26418;50.070;8.436;2023-04-09T04:16:06;100814.50;;;5.06;82.07
40730;BME280;26418;50.070;8.436;2023-04-09T04:18:31;100827.09;;;5.05;82.32
40730;BME280;26418;50.070;8.436;2023-04-09T04:20:57;100813.34;;;5.01;82.13
40730;BME280;26418;50.070;8.436;2023-04-09T04:23:22;100822.31;;;5.07;82.44
40730;BME280;26418;50.070;8.436;2023-04-09T04:25:47;100820.34;;;5.02;82.36
40730;BME280;26418;50.070;8.436;2023-04-09T04:28:13;100827.91;;;5.06;82.53
40730;BME280;26418;50.070;8.436;2023-04-09T04:30:40;100809.75;;;4.96;82.28
40730;BME280;26418;50.070;8.436;2023-04-09T04:33:06;100830.47;;;5.00;82.43
40730;BME280;26418;50.070;8.436;2023-04-09T04:35:32;100835.97;;;5.06;82.33
40730;BME280;26418;50.070;8.436;2023-04-09T04:37:57;100835.97;;;5.06;82.40
40730;BME280;26418;50.070;8.436;2023-04-09T04:40:22;100828.97;;;5.04;82.43
40730;BME280;26418;50.070;8.436;2023-04-09T04:42:48;100829.09;;;4.98;82.04
40730;BME280;26418;50.070;8.436;2023-04-09T04:45:13;100831.56;;;4.99;82.45
40730;BME280;26418;50.070;8.436;2023-04-09T04:47:38;100831.06;;;5.02;82.57
40730;BME280;26418;50.070;8.436;2023-04-09T04:50:05;100843.41;;;5.03;82.64
40730;BME280;26418;50.070;8.436;2023-04-09T04:52:31;100844.22;;;5.04;82.51
40730;BME280;26418;50.070;8.436;2023-04-09T04:54:56;100842.63;;;5.03;82.66
40730;BME280;26418;50.070;8.436;2023-04-09T04:57:21;100838.53;;;5.00;82.74
40730;BME280;26418;50.070;8.436;2023-04-09T04:59:47;100842.38;;;5.04;82.83
40730;BME280;26418;50.070;8.436;2023-04-09T05:02:12;100836.19;;;5.04;82.86
40730;BME280;26418;50.070;8.436;2023-04-09T05:04:37;100832.38;;;5.00;82.84
40730;BME280;26418;50.070;8.436;2023-04-09T05:07:03;100842.63;;;5.03;82.86
40730;BME280;26418;50.070;8.436;2023-04-09T05:09:28;100842.94;;;5.07;83.19
40730;BME280;26418;50.070;8.436;2023-04-09T05:11:53;100842.63;;;5.03;83.02
40730;BME280;26418;50.070;8.436;2023-04-09T05:14:19;100841.53;;;5.04;83.05
40730;BME280;26418;50.070;8.436;2023-04-09T05:16:45;100839.09;;;5.02;83.22
40730;BME280;26418;50.070;8.436;2023-04-09T05:19:11;100841.91;;;5.08;83.29
40730;BME280;26418;50.070;8.436;2023-04-09T05:21:36;100837.34;;;5.08;83.04
40730;BME280;26418;50.070;8.436;2023-04-09T05:24:02;100848.97;;;5.14;82.84
40730;BME280;26418;50.070;8.436;2023-04-09T05:26:27;100845.78;;;5.17;83.17
40730;BME280;26418;50.070;8.436;2023-04-09T05:28:52;100848.47;;;5.17;83.09
40730;BME280;26418;50.070;8.436;2023-04-09T05:31:18;100826.53;;;5.03;83.11
40730;BME280;26418;50.070;8.436;2023-04-09T05:33:44;100849.50;;;5.28;82.81
40730;BME280;26418;50.070;8.436;2023-04-09T05:36:17;100847.13;;;5.31;82.65
40730;BME280;26418;50.070;8.436;2023-04-09T05:38:43;100842.16;;;5.23;82.72
40730;BME280;26418;50.070;8.436;2023-04-09T05:41:10;100849.31;;;5.34;82.69
40730;BME280;26418;50.070;8.436;2023-04-09T05:43:35;100841.84;;;5.37;82.46
40730;BME280;26418;50.070;8.436;2023-04-09T05:46:00;100852.91;;;5.40;82.06
40730;BME280;26418;50.070;8.436;2023-04-09T05:48:26;100856.97;;;5.43;82.58
40730;BME280;26418;50.070;8.436;2023-04-09T05:50:51;100854.28;;;5.43;82.67
40730;BME280;26418;50.070;8.436;2023-04-09T05:53:20;100853.72;;;5.41;82.83
40730;BME280;26418;50.070;8.436;2023-04-09T05:55:46;100853.09;;;5.50;82.63
40730;BME280;26418;50.070;8.436;2023-04-09T05:58:13;100845.84;;;5.51;82.42
40730;BME280;26418;50.070;8.436;2023-04-09T06:00:39;100849.66;;;5.55;82.29
40730;BME280;26418;50.070;8.436;2023-04-09T06:03:05;100855.09;;;5.60;82.27
40730;BME280;26418;50.070;8.436;2023-04-09T06:05:31;100854.06;;;5.61;82.16
40730;BME280;26418;50.070;8.436;2023-04-09T06:07:56;100849.09;;;5.70;82.22
40730;BME280;26418;50.070;8.436;2023-04-09T06:10:22;100846.44;;;5.70;82.33
40730;BME280;26418;50.070;8.436;2023-04-09T06:12:48;100849.19;;;5.75;81.96
40730;BME280;26418;50.070;8.436;2023-04-09T06:15:13;100856.97;;;5.77;82.04
40730;BME280;26418;50.070;8.436;2023-04-09T06:17:38;100862.59;;;5.75;82.18
40730;BME280;26418;50.070;8.436;2023-04-09T06:20:04;100857.28;;;5.80;82.34
40730;BME280;26418;50.070;8.436;2023-04-09T06:22:30;100857.72;;;5.89;82.00
40730;BME280;26418;50.070;8.436;2023-04-09T06:24:56;100853.56;;;5.98;81.60
40730;BME280;26418;50.070;8.436;2023-04-09T06:27:21;100856.09;;;6.05;81.25
40730;BME280;26418;50.070;8.436;2023-04-09T06:29:47;100858.03;;;6.10;81.23
40730;BME280;26418;50.070;8.436;2023-04-09T06:32:12;100859.16;;;6.14;81.00
40730;BME280;26418;50.070;8.436;2023-04-09T06:34:37;100864.13;;;6.22;80.58
40730;BME280;26418;50.070;8.436;2023-04-09T06:37:03;100862.22;;;6.23;80.75
40730;BME280;26418;50.070;8.436;2023-04-09T06:39:28;100873.13;;;6.33;80.33
40730;BME280;26418;50.070;8.436;2023-04-09T06:41:54;100866.22;;;6.37;80.21
40730;BME280;26418;50.070;8.436;2023-04-09T06:44:19;100871.38;;;6.44;80.47
40730;BME280;26418;50.070;8.436;2023-04-09T06:46:45;100867.94;;;6.49;80.30
40730;BME280;26418;50.070;8.436;2023-04-09T06:49:11;100874.34;;;6.65;79.68
40730;BME280;26418;50.070;8.436;2023-04-09T06:51:36;100873.94;;;6.78;80.43
40730;BME280;26418;50.070;8.436;2023-04-09T06:54:02;100879.00;;;6.97;79.56
40730;BME280;26418;50.070;8.436;2023-04-09T06:56:27;100877.31;;;7.13;78.62
40730;BME280;26418;50.070;8.436;2023-04-09T06:58:53;100873.31;;;7.20;77.67
40730;BME280;26418;50.070;8.436;2023-04-09T07:01:18;100866.41;;;7.30;77.38
40730;BME280;26418;50.070;8.436;2023-04-09T07:03:45;100845.97;;;7.29;76.32
40730;BME280;26418;50.070;8.436;2023-04-09T07:06:10;100875.75;;;7.49;75.72
40730;BME280;26418;50.070;8.436;2023-04-09T07:08:36;100865.03;;;7.54;75.73
40730;BME280;26418;50.070;8.436;2023-04-09T07:11:01;100864.25;;;7.59;75.59
40730;BME280;26418;50.070;8.436;2023-04-09T07:13:27;100866.47;;;7.67;74.91
40730;BME280;26418;50.070;8.436;2023-04-09T07:15:53;100869.75;;;7.75;74.47
40730;BME280;26418;50.070;8.436;2023-04-09T07:18:18;100871.41;;;7.81;74.29
40730;BME280;26418;50.070;8.436;2023-04-09T07:20:44;100870.63;;;7.85;74.21
40730;BME280;26418;50.070;8.436;2023-04-09T07:23:09;100870.69;;;7.91;75.85
40730;BME280;26418;50.070;8.436;2023-04-09T07:25:35;100874.56;;;8.05;74.05
40730;BME280;26418;50.070;8.436;2023-04-09T07:28:01;100873.28;;;8.13;73.70
40730;BME280;26418;50.070;8.436;2023-04-09T07:30:27;100862.78;;;8.22;73.49
40730;BME280;26418;50.070;8.436;2023-04-09T07:32:52;100861.53;;;8.40;72.67
40730;BME280;26418;50.070;8.436;2023-04-09T07:35:18;100860.56;;;8.56;72.07
40730;BME280;26418;50.070;8.436;2023-04-09T07:37:43;100863.56;;;8.65;70.86
40730;BME280;26418;50.070;8.436;2023-04-09T07:40:09;100873.31;;;8.71;70.86
40730;BME280;26418;50.070;8.436;2023-04-09T07:42:38;100867.91;;;8.71;70.84
40730;BME280;26418;50.070;8.436;2023-04-09T07:45:04;100872.50;;;8.76;70.88
40730;BME280;26418;50.070;8.436;2023-04-09T07:47:30;100876.03;;;8.76;70.92
40730;BME280;26418;50.070;8.436;2023-04-09T07:49:56;100875.47;;;8.79;71.01
40730;BME280;26418;50.070;8.436;2023-04-09T07:52:22;100887.13;;;8.90;70.78
40730;BME280;26418;50.070;8.436;2023-04-09T07:54:47;100866.91;;;8.98;70.41
40730;BME280;26418;50.070;8.436;2023-04-09T07:57:12;100885.59;;;9.20;69.69
40730;BME280;26418;50.070;8.436;2023-04-09T07:59:38;100867.50;;;9.21;69.75
40730;BME280;26418;50.070;8.436;2023-04-09T08:02:03;100882.63;;;9.37;68.57
40730;BME280;26418;50.070;8.436;2023-04-09T08:04:30;100876.44;;;9.42;68.24
40730;BME280;26418;50.070;8.436;2023-04-09T08:06:55;100885.34;;;9.53;68.68
40730;BME280;26418;50.070;8.436;2023-04-09T08:09:21;100882.13;;;9.56;67.91
40730;BME280;26418;50.070;8.436;2023-04-09T08:11:47;100882.66;;;9.58;67.52
40730;BME280;26418;50.070;8.436;2023-04-09T08:14:14;100881.56;;;9.64;67.17
40730;BME280;26418;50.070;8.436;2023-04-09T08:16:41;100885.88;;;9.81;73.14
40730;BME280;26418;50.070;8.436;2023-04-09T08:19:07;100893.94;;;10.12;72.29
40730;BME280;26418;50.070;8.436;2023-04-09T08:21:33;100886.91;;;10.21;70.98
40730;BME280;26418;50.070;8.436;2023-04-09T08:23:58;100894.19;;;10.41;69.56
40730;BME280;26418;50.070;8.436;2023-04-09T08:26:28;100891.47;;;10.46;67.67
40730;BME280;26418;50.070;8.436;2023-04-09T08:28:54;100883.31;;;10.62;65.71
40730;BME280;26418;50.070;8.436;2023-04-09T08:31:19;100882.78;;;10.60;64.67
40730;BME280;26418;50.070;8.436;2023-04-09T08:33:45;100884.91;;;10.73;67.54
40730;BME280;26418;50.070;8.436;2023-04-09T08:36:11;100893.66;;;11.05;65.73
40730;BME280;26418;50.070;8.436;2023-04-09T08:38:36;100899.16;;;11.34;65.94
40730;BME280;26418;50.070;8.436;2023-04-09T08:41:02;100894.16;;;11.57;63.58
40730;BME280;26418;50.070;8.436;2023-04-09T08:43:27;100890.41;;;11.82;62.81
40730;BME280;26418;50.070;8.436;2023-04-09T08:45:54;100889.56;;;12.16;61.24
40730;BME280;26418;50.070;8.436;2023-04-09T08:48:23;100890.75;;;12.58;60.04
40730;BME280;26418;50.070;8.436;2023-04-09T08:50:48;100888.22;;;12.67;57.49
40730;BME280;26418;50.070;8.436;2023-04-09T08:53:14;100893.69;;;12.62;58.08
40730;BME280;26418;50.070;8.436;2023-04-09T08:55:44;100895.81;;;12.65;58.11
40730;BME280;26418;50.070;8.436;2023-04-09T08:58:09;100891.50;;;12.64;59.44
40730;BME280;26418;50.070;8.436;2023-04-09T09:00:35;100897.47;;;12.85;59.52
40730;BME280;26418;50.070;8.436;2023-04-09T09:03:03;100898.22;;;12.91;58.90
40730;BME280;26418;50.070;8.436;2023-04-09T09:05:40;100892.47;;;12.93;57.36
40730;BME280;26418;50.070;8.436;2023-04-09T09:08:10;100895.59;;;13.05;58.06
40730;BME280;26418;50.070;8.436;2023-04-09T09:10:45;100899.91;;;13.25;57.78
40730;BME280;26418;50.070;8.436;2023-04-09T09:15:42;100890.91;;;13.49;56.34
40730;BME280;26418;50.070;8.436;2023-04-09T09:18:08;100900.38;;;13.51;56.01
40730;BME280;26418;50.070;8.436;2023-04-09T09:20:33;100890.16;;;13.43;55.27
40730;BME280;26418;50.070;8.436;2023-04-09T09:22:59;100889.66;;;13.41;55.23
40730;BME280;26418;50.070;8.436;2023-04-09T09:25:25;100890.81;;;13.35;54.30
40730;BME280;26418;50.070;8.436;2023-04-09T09:27:52;100889.84;;;13.45;55.30
40730;BME280;26418;50.070;8.436;2023-04-09T09:30:26;100893.88;;;13.47;53.53
40730;BME280;26418;50.070;8.436;2023-04-09T09:33:09;100886.16;;;13.35;53.19
40730;BME280;26418;50.070;8.436;2023-04-09T09:35:51;100893.41;;;13.45;54.36
40730;BME280;26418;50.070;8.436;2023-04-09T09:38:18;100889.28;;;13.48;53.02
40730;BME280;26418;50.070;8.436;2023-04-09T09:40:44;100881.13;;;13.48;52.66
40730;BME280;26418;50.070;8.436;2023-04-09T09:43:12;100889.16;;;13.72;53.07
40730;BME280;26418;50.070;8.436;2023-04-09T09:45:37;100885.69;;;13.99;52.39
40730;BME280;26418;50.070;8.436;2023-04-09T09:48:08;100883.91;;;14.09;51.70
40730;BME280;26418;50.070;8.436;2023-04-09T09:50:34;100886.84;;;14.40;51.35
40730;BME280;26418;50.070;8.436;2023-04-09T09:53:04;100889.34;;;14.65;49.59
40730;BME280;26418;50.070;8.436;2023-04-09T09:55:31;100883.41;;;14.76;49.44
40730;BME280;26418;50.070;8.436;2023-04-09T09:58:00;100882.69;;;14.99;49.40
40730;BME280;26418;50.070;8.436;2023-04-09T10:00:27;100883.88;;;15.06;48.98
40730;BME280;26418;50.070;8.436;2023-04-09T10:02:57;100880.53;;;15.09;48.95
40730;BME280;26418;50.070;8.436;2023-04-09T10:05:23;100873.84;;;15.16;48.82
40730;BME280;26418;50.070;8.436;2023-04-09T10:07:56;100870.31;;;15.15;48.80
40730;BME280;26418;50.070;8.436;2023-04-09T10:10:23;100873.56;;;15.17;49.14
40730;BME280;26418;50.070;8.436;2023-04-09T10:12:50;100861.53;;;15.18;49.12
40730;BME280;26418;50.070;8.436;2023-04-09T10:15:17;100864.09;;;15.37;47.75
40730;BME280;26418;50.070;8.436;2023-04-09T10:17:43;100865.94;;;15.74;48.21
40730;BME280;26418;50.070;8.436;2023-04-09T10:20:18;100863.97;;;16.28;46.66
40730;BME280;26418;50.070;8.436;2023-04-09T10:22:48;100855.06;;;16.63;45.08
40730;BME280;26418;50.070;8.436;2023-04-09T10:25:16;100853.00;;;16.86;45.17
40730;BME280;26418;50.070;8.436;2023-04-09T10:27:42;100845.78;;;16.90;44.44
40730;BME280;26418;50.070;8.436;2023-04-09T10:30:30;100839.34;;;16.86;44.60
40730;BME280;26418;50.070;8.436;2023-04-09T10:33:07;100841.41;;;16.80;42.39
40730;BME280;26418;50.070;8.436;2023-04-09T10:35:33;100857.28;;;16.52;43.42
40730;BME280;26418;50.070;8.436;2023-04-09T10:37:58;100843.13;;;16.32;44.23
40730;BME280;26418;50.070;8.436;2023-04-09T10:40:27;100841.56;;;16.09;44.55
40730;BME280;26418;50.070;8.436;2023-04-09T10:42:54;100843.34;;;16.13;44.60
40730;BME280;26418;50.070;8.436;2023-04-09T10:45:20;100842.44;;;16.27;44.72
40730;BME280;26418;50.070;8.436;2023-04-09T10:47:48;100839.13;;;16.39;43.08
40730;BME280;26418;50.070;8.436;2023-04-09T10:50:19;100837.88;;;16.54;42.98
40730;BME280;26418;50.070;8.436;2023-04-09T10:52:44;100836.44;;;16.65;42.94
40730;BME280;26418;50.070;8.436;2023-04-09T10:57:54;100838.19;;;16.61;43.02
40730;BME280;26418;50.070;8.436;2023-04-09T11:00:20;100839.44;;;16.46;42.08
40730;BME280;26418;50.070;8.436;2023-04-09T11:05:36;100834.22;;;16.18;43.85
40730;BME280;26418;50.070;8.436;2023-04-09T11:08:12;100834.81;;;16.06;42.58
40730;BME280;26418;50.070;8.436;2023-04-09T11:10:39;100837.53;;;15.97;43.12
40730;BME280;26418;50.070;8.436;2023-04-09T11:13:05;100838.66;;;16.05;42.77
40730;BME280;26418;50.070;8.436;2023-04-09T11:15:33;100834.59;;;16.43;43.20
40730;BME280;26418;50.070;8.436;2023-04-09T11:17:59;100835.97;;;16.80;42.34
40730;BME280;26418;50.070;8.436;2023-04-09T11:20:25;100826.66;;;16.81;40.67
40730;BME280;26418;50.070;8.436;2023-04-09T11:22:52;100822.00;;;16.82;42.07
40730;BME280;26418;50.070;8.436;2023-04-09T11:25:26;100822.66;;;16.96;42.39
40730;BME280;26418;50.070;8.436;2023-04-09T11:27:52;100823.78;;;16.87;40.61
40730;BME280;26418;50.070;8.436;2023-04-09T11:30:18;100805.56;;;16.47;39.98
40730;BME280;26418;50.070;8.436;2023-04-09T11:32:44;100822.69;;;16.30;41.69
40730;BME280;26418;50.070;8.436;2023-04-09T11:35:20;100816.72;;;16.10;42.51
40730;BME280;26418;50.070;8.436;2023-04-09T11:37:47;100819.38;;;15.93;42.55
40730;BME280;26418;50.070;8.436;2023-04-09T11:40:22;100827.09;;;15.77;43.34
40730;BME280;26418;50.070;8.436;2023-04-09T11:42:50;100827.53;;;15.70;44.33
40730;BME280;26418;50.070;8.436;2023-04-09T11:45:16;100820.75;;;15.59;44.34
40730;BME280;26418;50.070;8.436;2023-04-09T11:47:43;100823.66;;;15.62;44.73
40730;BME280;26418;50.070;8.436;2023-04-09T11:50:10;100813.53;;;15.54;43.15
40730;BME280;26418;50.070;8.436;2023-04-09T11:52:36;100826.56;;;15.66;43.65
40730;BME280;26418;50.070;8.436;2023-04-09T11:55:02;100813.69;;;15.57;41.98
40730;BME280;26418;50.070;8.436;2023-04-09T11:57:38;100818.53;;;15.61;42.24
40730;BME280;26418;50.070;8.436;2023-04-09T12:00:10;100817.47;;;15.70;42.06
40730;BME280;26418;50.070;8.436;2023-04-09T12:03:03;100810.56;;;15.73;42.67
40730;BME280;26418;50.070;8.436;2023-04-09T12:05:33;100819.69;;;15.68;43.16
40730;BME280;26418;50.070;8.436;2023-04-09T12:08:08;100829.25;;;15.57;42.68
40730;BME280;26418;50.070;8.436;2023-04-09T12:10:36;100826.84;;;15.33;42.54
40730;BME280;26418;50.070;8.436;2023-04-09T12:13:07;100825.97;;;15.01;44.06
40730;BME280;26418;50.070;8.436;2023-04-09T12:15:37;100814.19;;;14.91;44.86
40730;BME280;26418;50.070;8.436;2023-04-09T12:18:10;100804.22;;;14.87;44.75
40730;BME280;26418;50.070;8.436;2023-04-09T12:20:38;100817.81;;;15.01;44.94
40730;BME280;26418;50.070;8.436;2023-04-09T12:23:04;100816.00;;;14.96;43.88
40730;BME280;26418;50.070;8.436;2023-04-09T12:25:32;100811.34;;;14.97;42.79
40730;BME280;26418;50.070;8.436;2023-04-09T12:27:58;100811.91;;;15.07;42.88
40730;BME280;26418;50.070;8.436;2023-04-09T12:30:24;100814.94;;;15.29;43.35
40730;BME280;26418;50.070;8.436;2023-04-09T12:32:50;100803.88;;;15.48;41.42
40730;BME280;26418;50.070;8.436;2023-04-09T12:35:16;100805.25;;;15.68;40.54
40730;BME280;26418;50.070;8.436;2023-04-09T12:37:42;100799.28;;;15.88;41.04
40730;BME280;26418;50.070;8.436;2023-04-09T12:40:08;100790.16;;;15.93;40.52
40730;BME280;26418;50.070;8.436;2023-04-09T12:42:33;100786.19;;;16.08;41.54
40730;BME280;26418;50.070;8.436;2023-04-09T12:44:59;100787.53;;;16.28;41.11
40730;BME280;26418;50.070;8.436;2023-04-09T12:47:25;100784.34;;;16.44;40.96
40730;BME280;26418;50.070;8.436;2023-04-09T12:49:51;100783.06;;;16.50;40.18
40730;BME280;26418;50.070;8.436;2023-04-09T12:52:16;100783.88;;;16.50;38.89
40730;BME280;26418;50.070;8.436;2023-04-09T12:54:42;100780.16;;;16.38;39.02
40730;BME280;26418;50.070;8.436;2023-04-09T12:57:08;100778.88;;;16.35;39.57
40730;BME280;26418;50.070;8.436;2023-04-09T12:59:33;100781.13;;;16.33;39.60
40730;BME280;26418;50.070;8.436;2023-04-09T13:01:59;100773.09;;;16.37;40.08
40730;BME280;26418;50.070;8.436;2023-04-09T13:04:24;100772.63;;;16.43;40.34
40730;BME280;26418;50.070;8.436;2023-04-09T13:06:50;100770.06;;;16.47;39.84
40730;BME280;26418;50.070;8.436;2023-04-09T13:09:15;100770.72;;;16.53;39.80
40730;BME280;26418;50.070;8.436;2023-04-09T13:11:41;100767.03;;;16.57;40.15
40730;BME280;26418;50.070;8.436;2023-04-09T13:14:06;100769.59;;;16.71;39.86